Time;durP1;ratioP1;P1;durP2;ratioP2;P2;SDS_P1;SDS_P2;PMS_P1;PMS_P2;Temp;Humidity;BMP_temperature;BMP_pressure;BME280_temperature;BME280_humidity;BME280_pressure;Samples;Min_cycle;Max_cycle;Signal;HPM_P1;HPM_P2
2022/06/06 00:01:37;;;;;;;15.07;8.18;;;15.30;99.90;;;;;;5093099;28;20392;-70
2022/06/06 00:04:03;;;;;;;14.48;7.68;;;15.20;99.90;;;;;;5094051;28;20054;-70
2022/06/06 00:06:29;;;;;;;13.65;7.13;;;15.30;99.90;;;;;;5094498;28;20044;-70
2022/06/06 00:08:55;;;;;;;13.65;7.60;;;15.20;99.90;;;;;;5093877;28;20044;-71
2022/06/06 00:11:21;;;;;;;10.65;6.60;;;15.20;99.90;;;;;;5097287;28;20039;-70
2022/06/06 00:13:47;;;;;;;11.70;6.90;;;15.20;99.90;;;;;;5099449;28;20113;-70
2022/06/06 00:16:13;;;;;;;11.45;6.35;;;15.20;99.90;;;;;;5102816;28;20048;-70
2022/06/06 00:18:39;;;;;;;11.68;6.72;;;15.20;99.90;;;;;;5101107;28;20103;-70
2022/06/06 00:21:07;;;;;;;9.05;5.45;;;15.20;99.90;;;;;;5102145;28;20048;-69
2022/06/06 00:23:33;;;;;;;11.80;6.05;;;15.20;99.90;;;;;;5100289;28;20056;-70
2022/06/06 00:25:59;;;;;;;10.93;5.55;;;15.20;99.90;;;;;;5100425;28;20048;-72
2022/06/06 00:28:25;;;;;;;8.18;4.47;;;15.20;99.90;;;;;;5099928;28;20063;-71
2022/06/06 00:30:56;;;;;;;8.70;5.00;;;15.20;99.90;;;;;;5101377;28;20048;-72
2022/06/06 00:36:06;;;;;;;8.00;4.55;;;15.20;99.90;;;;;;5101416;28;20082;-71
2022/06/06 00:38:32;;;;;;;8.43;4.53;;;15.20;99.90;;;;;;5100494;28;20043;-71
2022/06/06 00:40:59;;;;;;;8.02;4.32;;;15.20;99.90;;;;;;5081383;28;20056;-72
2022/06/06 00:43:25;;;;;;;7.70;4.55;;;15.10;99.90;;;;;;5098587;28;20113;-72
2022/06/06 00:45:56;;;;;;;7.80;4.70;;;15.10;99.90;;;;;;5099267;28;20054;-72
2022/06/06 00:48:24;;;;;;;7.53;4.30;;;15.10;99.90;;;;;;5098943;28;20056;-73
2022/06/06 00:50:52;;;;;;;7.75;4.25;;;15.10;99.90;;;;;;5097468;28;20043;-72
2022/06/06 00:53:28;;;;;;;8.43;4.43;;;15.10;99.90;;;;;;5096434;28;20050;-73
2022/06/06 00:55:59;;;;;;;9.40;4.97;;;15.10;99.90;;;;;;5094658;28;20048;-72
2022/06/06 00:58:27;;;;;;;8.35;4.32;;;15.10;99.90;;;;;;5094499;28;20040;-74
2022/06/06 01:00:53;;;;;;;8.75;4.97;;;15.10;99.90;;;;;;5094098;28;20485;-72
2022/06/06 01:03:24;;;;;;;9.57;5.53;;;15.10;99.90;;;;;;5096167;28;20058;-72
2022/06/06 01:05:50;;;;;;;11.35;5.38;;;15.10;99.90;;;;;;5098114;28;20090;-72
2022/06/06 01:08:23;;;;;;;9.00;5.40;;;15.10;99.90;;;;;;5097996;28;20126;-74
2022/06/06 01:10:49;;;;;;;10.55;5.90;;;15.10;99.90;;;;;;5095758;28;20154;-74
2022/06/06 01:13:18;;;;;;;13.10;6.93;;;15.20;99.90;;;;;;5096947;28;20128;-71
2022/06/06 01:16:31;;;;;;;14.70;7.75;;;15.20;99.90;;;;;;5112895;28;20099;-70
2022/06/06 01:19:20;;;;;;;14.85;9.38;;;15.20;99.90;;;;;;5018292;28;20144;-71
2022/06/06 01:22:05;;;;;;;17.13;8.70;;;15.20;99.90;;;;;;5112098;28;20079;-70
2022/06/06 01:24:48;;;;;;;25.75;12.85;;;15.30;99.90;;;;;;5096075;28;20052;-73
2022/06/06 01:27:31;;;;;;;29.00;16.17;;;15.30;99.90;;;;;;5096931;28;20361;-73
2022/06/06 01:30:04;;;;;;;30.95;16.60;;;15.30;99.90;;;;;;5095604;28;20062;-73
2022/06/06 01:32:36;;;;;;;36.95;18.42;;;15.30;99.90;;;;;;5096879;28;20128;-72
2022/06/06 01:35:03;;;;;;;30.33;15.85;;;15.30;99.90;;;;;;5095419;28;20044;-72
2022/06/06 01:37:40;;;;;;;28.75;13.05;;;15.20;99.90;;;;;;5094807;28;20404;-72
2022/06/06 01:40:11;;;;;;;27.25;12.98;;;15.20;99.90;;;;;;5096565;28;20047;-73
2022/06/06 01:42:49;;;;;;;32.78;14.52;;;15.20;99.90;;;;;;5095021;28;20059;-72
2022/06/06 01:45:23;;;;;;;31.38;14.32;;;15.10;99.90;;;;;;5114678;28;20091;-73
2022/06/06 01:48:08;;;;;;;47.40;17.65;;;15.10;99.90;;;;;;5096388;28;20048;-71
2022/06/06 01:50:37;;;;;;;40.85;18.08;;;15.10;99.90;;;;;;5077993;28;20500;-72
2022/06/06 01:53:06;;;;;;;43.50;18.85;;;15.00;99.90;;;;;;5095376;28;20047;-73
2022/06/06 01:55:35;;;;;;;41.60;18.75;;;15.00;99.90;;;;;;5078205;28;20048;-72
2022/06/06 01:58:05;;;;;;;51.28;20.45;;;14.90;99.90;;;;;;5094709;28;20051;-72
2022/06/06 02:00:33;;;;;;;50.20;19.80;;;14.80;99.90;;;;;;5094582;28;20501;-73
2022/06/06 02:03:00;;;;;;;50.33;20.45;;;14.80;99.90;;;;;;5077830;28;20047;-74
2022/06/06 02:05:26;;;;;;;50.77;19.63;;;14.80;99.90;;;;;;5095907;28;20407;-70
2022/06/06 02:07:52;;;;;;;32.17;13.68;;;14.70;99.90;;;;;;5095564;28;20112;-71
2022/06/06 02:10:19;;;;;;;43.63;18.30;;;14.80;99.90;;;;;;5094005;28;20052;-72
2022/06/06 02:12:45;;;;;;;44.28;20.98;;;14.80;99.90;;;;;;5095346;28;20048;-70
2022/06/06 02:15:14;;;;;;;39.53;16.50;;;14.80;99.90;;;;;;5095147;28;20051;-71
2022/06/06 02:17:40;;;;;;;30.33;12.98;;;14.80;99.90;;;;;;5095279;28;20047;-73
2022/06/06 02:20:07;;;;;;;27.67;11.35;;;14.70;99.90;;;;;;5096002;28;20047;-71
2022/06/06 02:22:32;;;;;;;36.63;14.05;;;14.70;99.90;;;;;;5093789;28;20099;-74
2022/06/06 02:24:59;;;;;;;28.48;12.75;;;14.60;99.90;;;;;;5095557;28;20107;-72
2022/06/06 02:27:25;;;;;;;30.35;13.18;;;14.60;99.90;;;;;;5111086;28;20059;-74
2022/06/06 02:29:51;;;;;;;33.83;15.07;;;14.50;99.90;;;;;;5095019;28;20442;-73
2022/06/06 02:32:16;;;;;;;40.58;15.90;;;14.50;99.90;;;;;;5094590;28;20368;-73
2022/06/06 02:34:42;;;;;;;38.22;13.27;;;14.50;99.90;;;;;;5094710;28;20388;-73
2022/06/06 02:37:08;;;;;;;28.77;11.57;;;14.50;99.90;;;;;;5044469;28;20123;-74
2022/06/06 02:39:33;;;;;;;37.30;14.32;;;14.50;99.90;;;;;;5076730;28;20119;-73
2022/06/06 02:41:59;;;;;;;50.53;17.30;;;14.50;99.90;;;;;;5076583;28;20047;-71
2022/06/06 02:44:25;;;;;;;50.22;16.70;;;14.40;99.90;;;;;;5093492;28;20097;-74
2022/06/06 02:46:51;;;;;;;48.70;15.77;;;14.40;99.90;;;;;;5094667;28;20044;-74
2022/06/06 02:49:16;;;;;;;46.20;15.80;;;14.40;99.90;;;;;;5094847;28;20368;-73
2022/06/06 02:51:42;;;;;;;49.55;18.40;;;14.40;99.90;;;;;;5093642;28;20529;-73
2022/06/06 02:54:08;;;;;;;39.13;12.40;;;14.30;99.90;;;;;;5092830;28;20048;-72
2022/06/06 02:56:34;;;;;;;40.58;13.55;;;14.30;99.90;;;;;;5093016;28;20059;-73
2022/06/06 02:59:03;;;;;;;43.28;16.23;;;14.30;99.90;;;;;;5077258;28;20044;-72
2022/06/06 03:01:30;;;;;;;45.63;15.02;;;14.20;99.90;;;;;;5093674;28;20373;-73
2022/06/06 03:03:55;;;;;;;37.20;11.80;;;14.20;99.90;;;;;;5093492;28;20059;-74
2022/06/06 03:06:24;;;;;;;26.98;9.48;;;14.20;99.90;;;;;;5094867;28;20044;-75
2022/06/06 03:09:13;;;;;;;23.60;8.02;;;14.20;99.90;;;;;;5093176;28;20040;-74
2022/06/06 03:11:50;;;;;;;23.38;8.30;;;14.20;99.90;;;;;;5093266;28;20040;-73
2022/06/06 03:14:54;;;;;;;22.67;8.85;;;14.20;99.90;;;;;;5095714;28;20423;-75
2022/06/06 03:20:46;;;;;;;22.50;7.65;;;14.10;99.90;;;;;;5094323;28;20052;-74
2022/06/06 03:23:43;;;;;;;24.35;8.65;;;14.10;99.90;;;;;;5094345;28;20056;-72
2022/06/06 03:26:25;;;;;;;25.48;8.35;;;14.00;99.90;;;;;;5091994;28;20487;-72
2022/06/06 03:29:16;;;;;;;29.00;9.88;;;14.10;99.90;;;;;;5093684;28;20044;-73
2022/06/06 03:31:53;;;;;;;23.05;8.48;;;14.00;99.90;;;;;;5092628;28;20040;-72
2022/06/06 03:34:25;;;;;;;31.10;9.30;;;14.00;99.90;;;;;;5094160;28;20176;-72
2022/06/06 03:37:32;;;;;;;23.83;7.40;;;14.00;99.90;;;;;;5076231;28;20086;-71
2022/06/06 03:40:23;;;;;;;23.80;7.57;;;14.00;99.90;;;;;;5031104;28;20049;-76
2022/06/06 03:42:48;;;;;;;25.42;8.02;;;14.00;99.90;;;;;;5031566;28;20071;-72
2022/06/06 03:45:42;;;;;;;19.58;5.60;;;14.00;99.90;;;;;;5071764;28;20086;-72
2022/06/06 03:48:16;;;;;;;22.42;6.85;;;13.90;99.90;;;;;;5092367;28;20087;-72
2022/06/06 03:50:57;;;;;;;23.67;7.32;;;13.90;99.90;;;;;;5093557;28;20087;-72
2022/06/06 03:53:31;;;;;;;23.58;7.13;;;13.90;99.90;;;;;;5109581;28;20053;-72
2022/06/06 03:56:28;;;;;;;23.42;7.25;;;13.80;99.90;;;;;;5093474;28;20055;-72
2022/06/06 03:58:55;;;;;;;26.98;7.97;;;13.80;99.90;;;;;;5093294;28;20067;-72
2022/06/06 04:01:23;;;;;;;23.45;6.72;;;13.80;99.90;;;;;;5093482;28;20040;-72
2022/06/06 04:03:50;;;;;;;23.10;8.00;;;13.80;99.90;;;;;;5092182;28;20048;-72
2022/06/06 04:06:19;;;;;;;24.38;7.78;;;13.80;99.90;;;;;;5093148;28;20040;-71
2022/06/06 04:08:45;;;;;;;22.30;7.80;;;13.80;99.90;;;;;;5092757;28;20055;-71
2022/06/06 04:11:14;;;;;;;27.55;9.35;;;13.90;99.90;;;;;;5092613;28;20387;-71
2022/06/06 04:14:18;;;;;;;28.48;9.40;;;13.80;99.90;;;;;;5093099;28;20054;-71
2022/06/06 04:17:15;;;;;;;31.48;9.98;;;13.80;99.90;;;;;;5075587;28;20464;-73
2022/06/06 04:19:41;;;;;;;31.90;11.40;;;13.80;99.90;;;;;;5092906;28;20040;-71
2022/06/06 04:22:23;;;;;;;31.15;10.63;;;13.80;99.90;;;;;;5091763;28;20069;-71
2022/06/06 04:25:08;;;;;;;28.58;10.63;;;13.80;99.90;;;;;;5093201;28;20044;-71
2022/06/06 04:27:55;;;;;;;28.58;10.45;;;13.80;99.90;;;;;;5092688;28;20094;-71
2022/06/06 04:30:29;;;;;;;;;;;13.80;99.90;;;;;;5091920;28;20058;-72
2022/06/06 04:33:06;;;;;;;29.27;10.25;;;13.80;99.90;;;;;;5091611;28;20011;-70
2022/06/06 04:35:39;;;;;;;;;;;13.80;99.90;;;;;;5093451;28;20105;-70
2022/06/06 04:38:20;;;;;;;23.15;8.20;;;13.80;99.90;;;;;;5092861;28;19923;-72
2022/06/06 04:41:12;;;;;;;28.25;9.35;;;13.80;99.90;;;;;;5092642;28;20040;-71
2022/06/06 04:43:51;;;;;;;24.85;9.35;;;13.80;99.90;;;;;;5092966;28;20075;-70
2022/06/06 04:46:35;;;;;;;30.50;10.93;;;13.80;99.90;;;;;;5093243;28;20109;-70
2022/06/06 04:49:02;;;;;;;25.15;9.52;;;13.80;99.90;;;;;;5093060;28;20044;-70
2022/06/06 04:51:30;;;;;;;30.95;10.73;;;13.80;99.90;;;;;;5091445;28;20063;-73
2022/06/06 04:53:57;;;;;;;26.13;9.88;;;13.80;99.90;;;;;;5092236;28;20046;-71
2022/06/06 04:56:24;;;;;;;;;;;13.80;99.90;;;;;;5092974;28;20059;-72
2022/06/06 04:58:55;;;;;;;21.23;7.72;;;13.80;99.90;;;;;;5092480;28;19928;-71
2022/06/06 05:01:23;;;;;;;28.75;9.73;;;13.80;99.90;;;;;;5093134;28;20139;-70
2022/06/06 05:03:49;;;;;;;23.67;7.97;;;13.80;99.90;;;;;;5092796;28;20058;-71
2022/06/06 05:06:18;;;;;;;20.33;7.13;;;13.80;99.90;;;;;;5092330;28;20121;-74
2022/06/06 05:08:51;;;;;;;24.50;7.70;;;13.80;99.90;;;;;;5092411;28;20442;-72
2022/06/06 05:11:20;;;;;;;20.75;7.38;;;13.80;99.90;;;;;;5092995;28;20052;-71
2022/06/06 05:14:28;;;;;;;19.23;6.97;;;13.90;99.90;;;;;;5091888;28;20044;-71
2022/06/06 05:17:15;;;;;;;21.20;6.72;;;13.90;99.90;;;;;;5068438;28;20060;-72
2022/06/06 05:20:18;;;;;;;23.13;7.68;;;13.90;99.90;;;;;;5092120;28;20044;-73
2022/06/06 05:23:20;;;;;;;20.98;7.43;;;13.90;99.90;;;;;;5092464;28;20055;-73
2022/06/06 05:26:01;;;;;;;23.70;7.82;;;14.00;99.90;;;;;;5092273;28;20051;-71
2022/06/06 05:29:06;;;;;;;26.85;9.52;;;13.90;99.90;;;;;;5092268;28;20051;-72
2022/06/06 05:32:13;;;;;;;26.77;9.05;;;14.00;99.90;;;;;;5081087;28;20055;-73
2022/06/06 05:34:45;;;;;;;27.40;10.05;;;14.00;99.90;;;;;;5078659;28;20063;-71
2022/06/06 05:37:29;;;;;;;27.33;9.60;;;14.00;99.90;;;;;;5091909;28;20055;-73
2022/06/06 05:40:13;;;;;;;29.42;10.35;;;14.10;99.90;;;;;;5091025;28;20120;-72
2022/06/06 05:43:16;;;;;;;22.13;8.63;;;14.20;99.90;;;;;;5092707;28;20084;-72
2022/06/06 05:45:48;;;;;;;26.92;8.95;;;14.30;99.90;;;;;;5091053;28;20101;-72
2022/06/06 05:48:56;;;;;;;28.25;10.23;;;14.50;99.90;;;;;;5091761;28;20048;-73
2022/06/06 05:51:35;;;;;;;26.42;9.23;;;14.30;99.90;;;;;;5056123;28;20060;-71
2022/06/06 05:54:09;;;;;;;26.35;8.80;;;14.30;99.90;;;;;;5094907;28;20480;-71
2022/06/06 05:56:55;;;;;;;25.20;8.05;;;14.30;99.90;;;;;;5095726;28;20050;-71
2022/06/06 05:59:50;;;;;;;20.17;8.20;;;14.40;99.90;;;;;;5095045;28;20079;-75
2022/06/06 06:02:39;;;;;;;21.73;7.38;;;14.40;99.90;;;;;;5096734;28;20075;-73
2022/06/06 06:05:22;;;;;;;20.10;6.63;;;14.50;99.90;;;;;;5096516;28;20493;-74
2022/06/06 06:08:16;;;;;;;23.30;7.60;;;14.60;99.90;;;;;;5094574;28;20044;-72
2022/06/06 06:11:08;;;;;;;20.77;8.35;;;14.70;99.90;;;;;;5096483;28;20113;-73
2022/06/06 06:13:58;;;;;;;21.70;7.57;;;14.80;99.90;;;;;;5097007;28;20494;-73
2022/06/06 06:16:29;;;;;;;17.45;6.90;;;14.90;99.90;;;;;;5095741;28;20040;-73
2022/06/06 06:19:04;;;;;;;20.75;6.97;;;15.00;99.90;;;;;;5094942;28;20048;-73
2022/06/06 06:21:33;;;;;;;22.55;8.52;;;15.20;99.90;;;;;;5095291;28;20040;-72
2022/06/06 06:24:05;;;;;;;18.92;6.53;;;15.30;99.90;;;;;;5093360;28;20140;-74
2022/06/06 06:26:31;;;;;;;22.80;7.55;;;15.40;99.90;;;;;;5093978;28;20143;-74
2022/06/06 06:29:02;;;;;;;24.50;8.45;;;15.60;99.90;;;;;;5094764;28;20499;-73
2022/06/06 06:31:40;;;;;;;24.95;9.13;;;15.70;99.90;;;;;;5095511;28;20123;-72
2022/06/06 06:34:32;;;;;;;19.83;6.72;;;15.80;99.90;;;;;;5076792;28;20097;-71
2022/06/06 06:37:10;;;;;;;22.73;7.95;;;15.90;99.90;;;;;;5095381;28;20105;-72
2022/06/06 06:40:01;;;;;;;21.70;7.95;;;15.90;99.90;;;;;;5077054;28;20058;-73
2022/06/06 06:42:40;;;;;;;23.05;7.20;;;16.00;99.90;;;;;;5093495;28;20460;-73
2022/06/06 06:45:22;;;;;;;22.98;8.35;;;16.00;99.90;;;;;;5093279;28;20052;-73
2022/06/06 06:47:54;;;;;;;22.88;7.93;;;16.00;99.90;;;;;;5094755;28;20044;-73
2022/06/06 06:50:45;;;;;;;22.55;8.15;;;16.00;99.90;;;;;;5094439;28;20127;-71
2022/06/06 06:53:17;;;;;;;21.95;7.68;;;16.00;99.90;;;;;;5093438;28;20468;-73
2022/06/06 06:55:51;;;;;;;19.75;7.20;;;15.90;99.90;;;;;;5092839;28;20051;-72
2022/06/06 06:58:26;;;;;;;24.50;8.75;;;16.00;99.90;;;;;;5094844;28;20383;-71
2022/06/06 07:01:07;;;;;;;17.48;6.10;;;15.90;99.90;;;;;;5093195;28;20080;-73
2022/06/06 07:10:06;;;;;;;25.45;9.25;;;16.10;99.90;;;;;;5094170;28;19920;-71
2022/06/06 07:12:47;;;;;;;25.00;8.65;;;16.40;99.90;;;;;;5093487;28;20443;-71
2022/06/06 07:15:30;;;;;;;27.30;9.95;;;16.60;99.90;;;;;;5093332;28;20048;-72
2022/06/06 07:17:59;;;;;;;28.15;11.15;;;16.50;99.90;;;;;;5095013;28;20043;-72
2022/06/06 07:20:27;;;;;;;27.98;10.55;;;16.20;99.90;;;;;;5092991;28;20051;-72
2022/06/06 07:23:03;;;;;;;32.20;12.25;;;16.10;99.90;;;;;;5092467;28;20052;-74
2022/06/06 07:25:42;;;;;;;29.92;10.73;;;16.00;99.90;;;;;;5094225;28;20081;-73
2022/06/06 07:28:16;;;;;;;34.17;11.88;;;16.00;99.90;;;;;;5093342;28;20121;-72
2022/06/06 07:31:00;;;;;;;29.13;12.18;;;15.90;99.90;;;;;;5092651;28;20097;-72
2022/06/06 07:33:38;;;;;;;30.98;12.27;;;16.20;99.90;;;;;;5094583;28;20043;-73
2022/06/06 07:36:12;;;;;;;27.80;12.10;;;16.40;99.90;;;;;;5092200;28;20473;-74
2022/06/06 07:39:13;;;;;;;30.58;11.80;;;16.40;99.90;;;;;;5093161;28;20372;-72
2022/06/06 07:42:02;;;;;;;33.95;13.10;;;16.40;99.90;;;;;;5094005;28;20044;-72
2022/06/06 07:44:53;;;;;;;30.42;12.70;;;16.50;99.90;;;;;;5094042;28;20040;-74
2022/06/06 07:47:37;;;;;;;26.67;11.55;;;16.60;99.90;;;;;;5094543;28;20044;-76
2022/06/06 07:50:06;;;;;;;20.63;9.65;;;16.70;99.90;;;;;;5093506;28;20036;-72
2022/06/06 07:52:41;;;;;;;18.17;8.13;;;16.80;99.90;;;;;;5093587;28;20131;-73
2022/06/06 07:55:21;;;;;;;20.55;8.95;;;16.90;99.90;;;;;;5093259;28;20051;-73
2022/06/06 07:58:05;;;;;;;18.52;7.97;;;17.00;99.90;;;;;;5093755;28;20051;-74
2022/06/06 08:00:31;;;;;;;15.73;7.05;;;17.20;99.90;;;;;;5093362;28;20083;-73
2022/06/06 08:02:59;;;;;;;13.25;6.45;;;17.30;99.90;;;;;;5092102;28;20517;-74
2022/06/06 08:05:43;;;;;;;15.35;7.55;;;17.30;99.90;;;;;;5093109;28;20047;-72
2022/06/06 08:08:30;;;;;;;15.13;7.07;;;17.40;99.90;;;;;;5092678;28;20110;-72
2022/06/06 08:11:02;;;;;;;15.13;7.32;;;17.40;99.90;;;;;;5091974;28;20055;-73
2022/06/06 08:13:56;;;;;;;13.50;5.20;;;17.50;99.90;;;;;;5093967;28;20136;-73
2022/06/06 08:16:36;;;;;;;9.85;3.97;;;17.70;99.90;;;;;;5093137;28;20059;-72
2022/06/06 08:19:28;;;;;;;11.15;4.32;;;17.60;99.90;;;;;;5093103;28;20067;-74
2022/06/06 08:21:54;;;;;;;11.93;4.50;;;17.50;99.90;;;;;;5093117;28;20048;-73
2022/06/06 08:24:29;;;;;;;9.70;2.65;;;17.50;99.90;;;;;;5074938;28;20056;-72
2022/06/06 08:26:57;;;;;;;9.75;2.67;;;17.40;99.90;;;;;;5093492;28;20044;-76
2022/06/06 08:29:25;;;;;;;8.65;3.28;;;17.30;99.90;;;;;;5074993;28;20044;-73
2022/06/06 08:31:51;;;;;;;9.35;3.28;;;17.20;99.90;;;;;;5093292;28;20122;-72
2022/06/06 08:34:17;;;;;;;7.05;3.47;;;17.10;99.90;;;;;;5091932;28;20127;-75
2022/06/06 08:37:18;;;;;;;8.00;2.95;;;17.10;99.90;;;;;;5092576;28;20139;-72
2022/06/06 08:40:06;;;;;;;7.30;2.75;;;17.10;99.90;;;;;;5092441;28;20480;-74
2022/06/06 08:43:10;;;;;;;8.55;3.13;;;17.30;99.90;;;;;;5092732;28;20583;-74
2022/06/06 08:45:57;;;;;;;9.30;3.10;;;17.30;99.90;;;;;;5092551;28;20079;-73
2022/06/06 08:48:47;;;;;;;7.30;2.80;;;17.20;99.90;;;;;;5093505;28;20051;-74
2022/06/06 08:51:40;;;;;;;9.27;2.83;;;17.20;99.90;;;;;;5091756;28;20468;-74
2022/06/06 08:54:30;;;;;;;6.72;3.10;;;17.40;99.90;;;;;;5109472;28;20119;-75
2022/06/06 08:57:13;;;;;;;9.63;3.50;;;17.30;99.90;;;;;;5092308;28;20074;-73
2022/06/06 09:00:16;;;;;;;7.10;3.17;;;17.30;99.90;;;;;;5092710;28;20052;-76
2022/06/06 09:02:54;;;;;;;6.22;2.60;;;17.40;99.90;;;;;;5093512;28;20048;-74
2022/06/06 09:05:26;;;;;;;6.28;1.90;;;17.80;99.90;;;;;;5074907;28;20107;-74
2022/06/06 09:08:10;;;;;;;4.60;2.00;;;18.00;99.90;;;;;;5093588;28;20044;-74
2022/06/06 09:11:06;;;;;;;6.05;2.10;;;18.10;99.90;;;;;;5092378;28;20055;-74
2022/06/06 09:13:32;;;;;;;5.93;2.00;;;18.30;99.90;;;;;;5093027;28;20100;-78
2022/06/06 09:16:35;;;;;;;6.95;2.17;;;18.50;99.90;;;;;;5092257;28;20507;-73
2022/06/06 09:19:19;;;;;;;7.47;2.47;;;18.50;99.90;;;;;;5092579;28;20105;-73
2022/06/06 09:22:05;;;;;;;7.15;2.50;;;18.40;99.90;;;;;;5091240;28;20044;-74
2022/06/06 09:24:56;;;;;;;9.35;2.85;;;18.50;99.90;;;;;;5095161;28;20118;-72
2022/06/06 09:27:57;;;;;;;6.15;2.35;;;18.70;99.90;;;;;;5095355;28;20145;-73
2022/06/06 09:30:33;;;;;;;7.43;2.15;;;18.70;99.90;;;;;;5095904;28;20060;-74
2022/06/06 09:33:14;;;;;;;5.95;1.80;;;18.80;99.90;;;;;;5095439;28;20080;-73
2022/06/06 09:35:50;;;;;;;4.82;1.70;;;18.90;99.90;;;;;;5096796;28;20059;-73
2022/06/06 09:38:19;;;;;;;5.15;1.65;;;18.90;99.90;;;;;;5097702;28;20059;-75
2022/06/06 09:40:56;;;;;;;3.58;1.75;;;18.90;99.90;;;;;;5096519;28;20070;-73
2022/06/06 09:43:31;;;;;;;5.75;1.55;;;18.80;99.90;;;;;;5096171;28;20436;-73
2022/06/06 09:46:07;;;;;;;7.50;1.38;;;19.00;99.90;;;;;;5097100;28;20052;-74
2022/06/06 09:49:23;;;;;;;5.50;1.60;;;19.00;99.90;;;;;;5096852;28;20043;-75
2022/06/06 09:52:07;;;;;;;7.15;1.40;;;18.90;99.90;;;;;;5060951;28;20189;-73
2022/06/06 10:01:13;;;;;;;5.88;1.58;;;18.80;99.90;;;;;;5096198;28;20231;-73
2022/06/06 10:04:06;;;;;;;4.45;1.75;;;18.70;99.90;;;;;;5095762;28;20048;-74
2022/06/06 10:06:50;;;;;;;8.00;2.28;;;18.50;99.90;;;;;;5095655;28;20055;-73
2022/06/06 10:09:28;;;;;;;5.90;2.40;;;18.30;99.90;;;;;;5094217;28;20044;-73
2022/06/06 10:12:32;;;;;;;5.53;2.17;;;18.20;99.90;;;;;;5096343;28;20047;-72
2022/06/06 10:15:13;;;;;;;9.73;3.50;;;18.00;99.90;;;;;;5095851;28;20349;-71
2022/06/06 10:17:50;;;;;;;7.97;2.90;;;17.70;99.90;;;;;;5077362;28;20140;-72
2022/06/06 10:20:40;;;;;;;8.05;2.85;;;17.40;99.90;;;;;;5077194;28;20050;-71
2022/06/06 10:23:12;;;;;;;8.68;3.10;;;17.10;99.90;;;;;;5093989;28;20118;-72
2022/06/06 10:26:33;;;;;;;5.30;3.00;;;17.00;99.90;;;;;;5094526;28;20052;-74
2022/06/06 10:29:14;;;;;;;7.82;3.17;;;17.00;99.90;;;;;;5033325;28;20053;-70
2022/06/06 10:32:00;;;;;;;12.38;4.00;;;16.70;99.90;;;;;;5068901;28;20052;-72
2022/06/06 10:34:43;;;;;;;7.68;3.58;;;16.60;99.90;;;;;;5095591;28;20511;-71
2022/06/06 10:37:16;;;;;;;6.95;4.07;;;16.00;99.90;;;;;;5094096;28;20517;-71
2022/06/06 10:40:08;;;;;;;10.57;4.25;;;15.70;99.90;;;;;;5093743;28;20055;-71
2022/06/06 10:43:05;;;;;;;6.25;3.92;;;15.60;99.90;;;;;;5094926;28;20135;-71
2022/06/06 10:45:54;;;;;;;9.98;4.68;;;15.40;99.90;;;;;;5094993;28;20116;-71
2022/06/06 10:48:23;;;;;;;5.72;2.17;;;15.30;99.90;;;;;;5093868;28;20483;-69
2022/06/06 10:54:13;;;;;;;3.50;1.17;;;14.50;99.90;;;;;;5094443;28;20044;-71
2022/06/06 10:57:12;;;;;;;3.25;1.10;;;14.00;99.90;;;;;;5095351;28;20052;-72
2022/06/06 10:59:49;;;;;;;3.22;1.55;;;13.80;99.90;;;;;;5093767;28;20043;-73
2022/06/06 11:02:43;;;;;;;9.20;3.10;;;13.70;99.90;;;;;;5094343;28;20051;-72
2022/06/06 11:05:46;;;;;;;5.05;3.00;;;13.60;99.90;;;;;;5094879;28;20116;-72
2022/06/06 11:08:51;;;;;;;7.40;3.10;;;13.80;99.90;;;;;;5093964;28;20494;-72
2022/06/06 11:11:55;;;;;;;6.45;3.38;;;13.80;99.90;;;;;;5094031;28;20047;-72
2022/06/06 11:14:40;;;;;;;7.28;3.63;;;13.90;99.90;;;;;;5094167;28;20048;-72
2022/06/06 11:17:23;;;;;;;7.53;3.50;;;13.90;99.90;;;;;;5094725;28;20364;-71
2022/06/06 11:20:04;;;;;;;7.55;3.38;;;13.90;99.90;;;;;;5076439;28;20052;-71
2022/06/06 11:22:56;;;;;;;6.32;3.30;;;13.90;99.90;;;;;;5093779;28;20059;-71
2022/06/06 11:25:22;;;;;;;8.82;3.50;;;14.00;99.90;;;;;;5094522;28;20484;-71
2022/06/06 11:28:14;;;;;;;11.45;5.00;;;14.10;99.90;;;;;;5093976;28;20056;-71
2022/06/06 11:30:45;;;;;;;7.78;3.90;;;14.40;99.90;;;;;;5094234;28;20100;-71
2022/06/06 11:33:49;;;;;;;6.82;3.50;;;14.50;99.90;;;;;;5109795;28;20051;-71
2022/06/06 11:36:40;;;;;;;6.53;3.28;;;14.60;99.90;;;;;;5092693;28;20109;-72
2022/06/06 11:39:32;;;;;;;10.38;3.38;;;14.70;99.90;;;;;;5094323;28;20083;-71
2022/06/06 11:42:36;;;;;;;7.15;3.38;;;14.70;99.90;;;;;;5095464;28;20040;-72
2022/06/06 11:45:39;;;;;;;11.00;3.20;;;14.70;99.90;;;;;;5032504;28;20060;-69
2022/06/06 11:48:28;;;;;;;6.75;2.65;;;14.60;99.90;;;;;;5031531;28;20119;-72
2022/06/06 11:51:15;;;;;;;6.03;1.80;;;14.50;99.90;;;;;;5087048;28;20056;-71
2022/06/06 11:53:46;;;;;;;;;;;14.50;99.90;;;;;;5094980;28;20055;-72
2022/06/06 11:56:32;;;;;;;6.57;1.80;;;14.60;99.90;;;;;;5094297;28;20439;-71
2022/06/06 11:59:04;;;;;;;4.78;1.65;;;14.80;99.90;;;;;;5093908;28;20482;-73
2022/06/06 12:01:49;;;;;;;3.75;1.70;;;15.00;99.90;;;;;;5093407;28;20456;-71
2022/06/06 12:04:43;;;;;;;5.28;1.80;;;15.40;99.90;;;;;;5092367;28;20567;-71
2022/06/06 12:07:33;;;;;;;4.13;1.80;;;15.90;99.90;;;;;;5093469;28;20207;-71
2022/06/06 12:10:21;;;;;;;3.53;1.52;;;16.20;99.90;;;;;;5093941;28;20044;-73
2022/06/06 12:13:41;;;;;;;4.00;1.60;;;16.50;99.90;;;;;;5093696;28;20054;-71
2022/06/06 12:16:25;;;;;;;5.20;1.33;;;16.70;99.90;;;;;;5088668;28;20075;-71
2022/06/06 12:19:06;;;;;;;4.28;2.00;;;16.80;99.90;;;;;;5093264;28;20048;-72
2022/06/06 12:21:49;;;;;;;5.10;1.95;;;17.10;99.90;;;;;;5092117;28;20050;-71
2022/06/06 12:24:43;;;;;;;4.05;1.80;;;17.30;99.90;;;;;;5093635;28;20164;-74
2022/06/06 12:27:46;;;;;;;6.70;2.03;;;17.60;99.90;;;;;;5093744;28;20040;-71
2022/06/06 12:30:53;;;;;;;6.28;2.55;;;17.80;99.90;;;;;;5093461;28;20051;-72
2022/06/06 12:33:30;;;;;;;3.72;1.52;;;18.00;99.90;;;;;;5031094;28;20573;-70
2022/06/06 12:36:44;;;;;;;5.25;1.90;;;18.20;99.90;;;;;;5032148;28;20049;-71
2022/06/06 12:39:11;;;;;;;2.90;1.52;;;18.40;99.90;;;;;;5050610;28;20143;-71
2022/06/06 12:42:00;;;;;;;4.15;1.60;;;18.40;99.90;;;;;;5092079;28;20521;-70
2022/06/06 12:45:00;;;;;;;9.32;1.85;;;18.40;99.90;;;;;;5093791;28;20177;-72
2022/06/06 12:47:37;;;;;;;2.72;1.38;;;18.50;99.90;;;;;;5093087;28;20052;-72
2022/06/06 12:50:30;;;;;;;3.88;1.65;;;18.60;99.90;;;;;;5093624;28;20206;-70
2022/06/06 12:53:10;;;;;;;4.70;1.35;;;18.70;99.90;;;;;;5064973;28;20531;-71
2022/06/06 12:58:46;;;;;;;3.33;1.45;;;19.10;99.90;;;;;;5094243;28;20048;-73
2022/06/06 13:01:51;;;;;;;3.03;1.10;;;19.20;99.90;;;;;;5099249;28;20076;-73
2022/06/06 13:04:44;;;;;;;3.30;0.95;;;19.00;99.90;;;;;;5079047;28;20050;-71
2022/06/06 13:07:41;;;;;;;2.83;0.80;;;18.80;99.90;;;;;;5077817;28;20403;-71
2022/06/06 13:10:50;;;;;;;2.40;0.65;;;18.60;99.90;;;;;;5094171;28;20048;-72
2022/06/06 13:13:27;;;;;;;2.67;0.80;;;18.50;99.90;;;;;;5092696;28;20094;-73
2022/06/06 13:16:07;;;;;;;2.55;0.60;;;18.60;99.90;;;;;;5095201;28;20121;-73
2022/06/06 13:19:19;;;;;;;2.42;0.93;;;18.50;99.90;;;;;;5077924;28;20157;-71
2022/06/06 13:21:54;;;;;;;3.13;1.13;;;18.60;99.90;;;;;;5077090;28;20036;-73
2022/06/06 13:25:01;;;;;;;5.05;1.13;;;18.60;99.90;;;;;;5077441;28;20056;-72
2022/06/06 13:27:59;;;;;;;4.18;1.30;;;18.50;99.90;;;;;;5095444;28;20085;-73
2022/06/06 13:30:35;;;;;;;2.72;1.10;;;18.30;99.90;;;;;;5098734;28;20047;-73
2022/06/06 13:33:10;;;;;;;4.28;1.42;;;18.40;99.90;;;;;;5078867;28;20052;-74
2022/06/06 13:36:04;;;;;;;4.90;1.85;;;18.00;99.90;;;;;;5093559;28;20040;-73
2022/06/06 13:39:00;;;;;;;3.67;1.42;;;17.80;99.90;;;;;;5093035;28;20044;-73
2022/06/06 13:41:42;;;;;;;2.92;1.40;;;17.70;99.90;;;;;;5095192;28;20044;-72
2022/06/06 13:45:06;;;;;;;3.45;1.60;;;17.40;99.90;;;;;;5096069;28;20044;-73
2022/06/06 13:47:59;;;;;;;5.43;1.80;;;17.30;99.90;;;;;;5016127;28;20045;-73
2022/06/06 13:50:54;;;;;;;5.63;2.40;;;17.00;99.90;;;;;;5014527;28;20053;-73
2022/06/06 13:54:02;;;;;;;6.13;2.67;;;16.90;99.90;;;;;;5083977;28;20056;-74
2022/06/06 13:56:39;;;;;;;5.38;3.13;;;16.80;99.90;;;;;;5071935;28;20135;-72
2022/06/06 13:59:24;;;;;;;6.57;3.33;;;16.80;99.90;;;;;;5092085;28;20040;-71
2022/06/06 14:02:23;;;;;;;6.68;3.17;;;16.90;99.90;;;;;;5092643;28;20154;-71
2022/06/06 14:05:09;;;;;;;7.03;3.92;;;16.90;99.90;;;;;;5093462;28;20056;-72
2022/06/06 14:07:58;;;;;;;6.67;3.93;;;16.90;99.90;;;;;;5093055;28;20091;-74
2022/06/06 14:10:36;;;;;;;12.35;4.22;;;17.00;99.90;;;;;;5095459;28;20777;-72
2022/06/06 14:13:16;;;;;;;6.93;4.20;;;17.00;99.90;;;;;;5096411;28;20073;-71
2022/06/06 14:15:45;;;;;;;8.38;3.53;;;16.80;99.90;;;;;;5081073;28;20089;-72